Wetterstation Vordersexau
Wetterdaten: Woche 11.02.13 - 17.02.13 (KW7)
Datum Zeit Temp. A. Feuchte A. Luftdruck Regen Wind Richtung Taupunkt Windchill Windben
11.02.2013 00:00 -4,4 C 86 % 1001,1 hPa 0,0 l/m 0,0 km/h O-SO -6,4 C -4,4 C 0,0 km/h
11.02.2013 01:00 -3,7 C 85 % 1000,2 hPa 0,0 l/m 0,0 km/h NO -5,8 C -3,7 C 0,0 km/h
11.02.2013 02:00 -3,7 C 84 % 999,5 hPa 0,0 l/m 0,0 km/h NW -6,0 C -3,7 C 0,0 km/h
11.02.2013 03:00 -3,8 C 86 % 999,1 hPa 0,0 l/m 0,0 km/h NW -5,8 C -3,8 C 0,0 km/h
11.02.2013 04:00 -3,7 C 86 % 998,5 hPa 0,0 l/m 0,0 km/h NW -5,7 C -3,7 C 0,0 km/h
11.02.2013 05:00 -3,6 C 86 % 998,0 hPa 0,0 l/m 0,0 km/h NW -5,6 C -3,6 C 0,0 km/h
11.02.2013 06:00 -3,5 C 86 % 997,5 hPa 0,0 l/m 0,0 km/h NW -5,5 C -3,5 C 0,0 km/h
11.02.2013 07:00 -3,5 C 86 % 997,3 hPa 0,0 l/m 0,0 km/h NW -5,5 C -3,5 C 0,0 km/h
11.02.2013 08:00 -3,0 C 86 % 997,6 hPa 0,0 l/m 0,0 km/h NW -5,0 C -3,0 C 0,0 km/h
11.02.2013 09:00 -1,4 C 86 % 997,5 hPa 0,0 l/m 0,0 km/h NW -3,4 C -1,4 C 0,0 km/h
11.02.2013 10:00 0,2 C 85 % 997,7 hPa 0,0 l/m 0,0 km/h NW -2,0 C 0,2 C 0,0 km/h
11.02.2013 11:00 2,1 C 81 % 997,4 hPa 0,0 l/m 0,0 km/h NO -0,8 C 2,1 C 0,0 km/h
11.02.2013 12:00 2,5 C 77 % 997,3 hPa 0,0 l/m 0,0 km/h O-NO -1,1 C 2,5 C 0,0 km/h
11.02.2013 13:00 3,1 C 76 % 997,1 hPa 0,5 l/m 0,0 km/h N-NO -0,7 C 3,1 C 0,0 km/h
11.02.2013 14:00 2,5 C 76 % 997,5 hPa 0,5 l/m 0,0 km/h O-NO -1,3 C 2,5 C 0,0 km/h
11.02.2013 15:00 1,3 C 80 % 997,7 hPa 0,5 l/m 0,0 km/h N-NO -1,8 C 1,3 C 0,0 km/h
11.02.2013 16:00 0,4 C 83 % 997,6 hPa 0,0 l/m 0,0 km/h N-NO -2,1 C 0,4 C 0,0 km/h
11.02.2013 17:00 -0,2 C 84 % 997,7 hPa 0,0 l/m 0,0 km/h NW -2,6 C -0,2 C 0,0 km/h
11.02.2013 18:00 -0,8 C 86 % 998,7 hPa 0,0 l/m 1,9 km/h N-NW -2,8 C -0,8 C 1,1 km/h
11.02.2013 19:00 -1,2 C 86 % 999,1 hPa 0,0 l/m 0,0 km/h N-NW -3,2 C -1,2 C 0,0 km/h
11.02.2013 20:00 -1,4 C 85 % 999,6 hPa 0,0 l/m 0,0 km/h N-NW -3,6 C -1,4 C 0,0 km/h
11.02.2013 21:00 -1,6 C 85 % 999,6 hPa 0,0 l/m 0,0 km/h N-NW -3,8 C -1,6 C 0,0 km/h
11.02.2013 22:00 -1,7 C 85 % 999,6 hPa 0,0 l/m 0,0 km/h N-NW -3,9 C -1,7 C 0,0 km/h
11.02.2013 23:00 -1,8 C 85 % 999,8 hPa 0,0 l/m 0,0 km/h N-NW -4,0 C -1,8 C 0,0 km/h
12.02.2013 00:00 -1,8 C 85 % 999,9 hPa 0,0 l/m 0,0 km/h N-NW -4,0 C -1,8 C 0,0 km/h
12.02.2013 01:00 -2,1 C 84 % 1000,2 hPa 0,0 l/m 0,0 km/h N-NW -4,4 C -2,1 C 0,0 km/h
12.02.2013 02:00 -2,2 C 84 % 1000,5 hPa 0,0 l/m 0,0 km/h N-NW -4,5 C -2,2 C 0,0 km/h
12.02.2013 03:00 -2,2 C 84 % 1000,9 hPa 0,0 l/m 0,0 km/h N-NW -4,5 C -2,2 C 0,0 km/h
12.02.2013 04:00 -2,2 C 84 % 1001,3 hPa 0,0 l/m 0,0 km/h N-NW -4,5 C -2,2 C 0,0 km/h
12.02.2013 05:00 -2,2 C 84 % 1001,7 hPa 0,0 l/m 0,0 km/h N-NW -4,5 C -2,2 C 0,0 km/h
12.02.2013 06:00 -2,4 C 84 % 1002,4 hPa 0,0 l/m 0,0 km/h N-NW -4,7 C -2,4 C 0,0 km/h
12.02.2013 07:00 -2,4 C 84 % 1003,0 hPa 0,0 l/m 0,0 km/h N-NW -4,7 C -2,4 C 0,0 km/h
12.02.2013 08:00 -2,1 C 84 % 1003,9 hPa 0,0 l/m 0,0 km/h N-NW -4,4 C -2,1 C 0,0 km/h
12.02.2013 09:00 -1,1 C 85 % 1004,7 hPa 0,0 l/m 0,0 km/h N-NW -3,3 C -1,1 C 0,0 km/h
12.02.2013 10:00 -1,1 C 86 % 1005,8 hPa 0,0 l/m 0,0 km/h N-NW -3,1 C -1,1 C 0,0 km/h
12.02.2013 11:00 -0,6 C 85 % 1006,4 hPa 0,0 l/m 0,0 km/h N-NW -2,8 C -0,6 C 0,0 km/h
12.02.2013 12:00 1,1 C 81 % 1006,9 hPa 0,0 l/m 0,0 km/h N-NW -1,8 C 1,1 C 0,0 km/h
12.02.2013 13:00 0,9 C 79 % 1007,3 hPa 0,0 l/m 0,0 km/h N -2,3 C 0,9 C 0,0 km/h
12.02.2013 14:00 1,5 C 77 % 1007,7 hPa 0,0 l/m 0,0 km/h O-SO -2,1 C 1,5 C 0,0 km/h
12.02.2013 15:00 1,8 C 74 % 1008,4 hPa 0,0 l/m 0,0 km/h O-SO -2,3 C 1,8 C 0,0 km/h
12.02.2013 16:00 0,8 C 75 % 1009,2 hPa 0,0 l/m 0,0 km/h O-SO -3,1 C 0,8 C 0,0 km/h
12.02.2013 17:00 -0,7 C 77 % 1010,0 hPa 0,5 l/m 0,0 km/h O-NO -4,2 C -0,7 C 0,0 km/h
12.02.2013 18:00 -1,6 C 80 % 1010,8 hPa 0,0 l/m 0,0 km/h O-NO -4,6 C -1,6 C 0,0 km/h
12.02.2013 19:00 -1,9 C 82 % 1011,5 hPa 0,0 l/m 0,0 km/h O-SO -4,6 C -1,9 C 0,0 km/h
12.02.2013 20:00 -2,6 C 83 % 1012,2 hPa 0,0 l/m 0,0 km/h SO -5,1 C -2,6 C 0,0 km/h
12.02.2013 21:00 -2,7 C 84 % 1013,1 hPa 0,0 l/m 0,0 km/h SO -5,0 C -2,7 C 0,0 km/h
12.02.2013 22:00 -2,8 C 85 % 1013,6 hPa 0,0 l/m 0,0 km/h SO -5,0 C -2,8 C 0,0 km/h
12.02.2013 23:00 -3,0 C 86 % 1013,6 hPa 0,0 l/m 0,0 km/h SO -5,0 C -3,0 C 0,0 km/h
13.02.2013 00:00 -3,2 C 86 % 1014,3 hPa 0,0 l/m 0,0 km/h SO -5,2 C -3,2 C 0,0 km/h
13.02.2013 01:00 -3,6 C 86 % 1014,4 hPa 0,0 l/m 0,0 km/h SO -5,6 C -3,6 C 0,0 km/h
13.02.2013 02:00 -3,9 C 86 % 1015,3 hPa 0,0 l/m 0,0 km/h SO -5,9 C -3,9 C 0,0 km/h
13.02.2013 03:00 -3,9 C 86 % 1015,5 hPa 0,0 l/m 0,0 km/h SO -5,9 C -3,9 C 0,0 km/h
13.02.2013 04:00 -3,7 C 86 % 1015,7 hPa 0,0 l/m 0,0 km/h SO -5,7 C -3,7 C 0,0 km/h
13.02.2013 05:00 -3,7 C 86 % 1016,2 hPa 0,0 l/m 0,0 km/h SO -5,7 C -3,7 C 0,0 km/h
13.02.2013 06:00 -3,8 C 87 % 1017,0 hPa 0,0 l/m 0,0 km/h SO -5,6 C -3,8 C 0,0 km/h
13.02.2013 07:00 -3,9 C 86 % 1017,2 hPa 0,0 l/m 0,0 km/h O-SO -5,9 C -3,9 C 0,0 km/h
13.02.2013 08:00 -3,6 C 86 % 1018,2 hPa 0,0 l/m 0,0 km/h O-SO -5,6 C -3,6 C 0,0 km/h
13.02.2013 09:00 -2,2 C 86 % 1018,8 hPa 0,0 l/m 0,0 km/h O-SO -4,2 C -2,2 C 0,0 km/h
13.02.2013 10:00 -0,1 C 86 % 1019,4 hPa 0,0 l/m 0,0 km/h O-SO -2,2 C -0,1 C 0,0 km/h
13.02.2013 11:00 2,4 C 76 % 1019,9 hPa 0,0 l/m 0,0 km/h SO -1,4 C 2,4 C 0,0 km/h
13.02.2013 12:00 4,4 C 65 % 1019,7 hPa 0,0 l/m 0,0 km/h O-SO -1,6 C 4,4 C 0,0 km/h
13.02.2013 13:00 5,2 C 59 % 1020,0 hPa 0,0 l/m 0,0 km/h SO -2,1 C 5,2 C 0,0 km/h
13.02.2013 14:00 3,9 C 60 % 1020,0 hPa 0,5 l/m 0,0 km/h O-SO -3,1 C 3,9 C 0,0 km/h
13.02.2013 15:00 1,5 C 62 % 1020,6 hPa 0,0 l/m 0,0 km/h O-SO -5,0 C 1,5 C 0,0 km/h
13.02.2013 16:00 0,1 C 67 % 1021,0 hPa 0,0 l/m 0,0 km/h SO -5,3 C 0,1 C 0,0 km/h
13.02.2013 17:00 -1,1 C 69 % 1021,7 hPa 0,0 l/m 0,0 km/h SO -6,0 C -1,1 C 0,0 km/h
13.02.2013 18:00 -2,1 C 70 % 1022,2 hPa 0,0 l/m 0,0 km/h S -6,8 C -2,1 C 0,0 km/h
13.02.2013 19:00 -5,4 C 77 % 1022,4 hPa 0,0 l/m 0,0 km/h SO -8,8 C -5,4 C 0,0 km/h
13.02.2013 20:00 -6,1 C 82 % 1022,8 hPa 0,0 l/m 0,0 km/h O-SO -8,7 C -6,1 C 0,0 km/h
13.02.2013 21:00 -6,6 C 84 % 1023,1 hPa 0,0 l/m 0,0 km/h S-SO -8,8 C -6,6 C 0,0 km/h
13.02.2013 22:00 -7,9 C 84 % 1023,2 hPa 0,0 l/m 0,0 km/h S-SW -10,1 C -7,9 C 0,0 km/h
13.02.2013 23:00 -7,9 C 85 % 1022,7 hPa 0,0 l/m 7,1 km/h O-SO -10,0 C -8,8 C 4,0 km/h
14.02.2013 00:00 -8,2 C 85 % 1022,4 hPa 0,0 l/m 0,0 km/h O-SO -10,3 C -8,2 C 0,0 km/h
14.02.2013 01:00 -9,1 C 85 % 1022,4 hPa 0,0 l/m 0,0 km/h O-SO -11,1 C -9,1 C 0,0 km/h
14.02.2013 02:00 -9,7 C 85 % 1022,5 hPa 0,0 l/m 0,0 km/h O-SO -11,7 C -9,7 C 0,0 km/h
14.02.2013 03:00 -9,8 C 86 % 1021,8 hPa 0,0 l/m 0,0 km/h O-SO -11,7 C -9,8 C 0,0 km/h
14.02.2013 04:00 -12,7 C 85 % 1021,5 hPa 0,0 l/m 0,0 km/h S-SW -14,7 C -12,7 C 0,0 km/h
14.02.2013 05:00 -13,9 C 85 % 1021,4 hPa 0,0 l/m 0,0 km/h O-SO -15,9 C -13,9 C 0,0 km/h
14.02.2013 06:00 -13,1 C 85 % 1021,2 hPa 0,0 l/m 0,0 km/h O-SO -15,1 C -13,1 C 0,0 km/h
14.02.2013 07:00 -13,1 C 85 % 1021,1 hPa 0,0 l/m 0,0 km/h O-SO -15,1 C -13,1 C 0,0 km/h
14.02.2013 08:00 -12,2 C 86 % 1021,0 hPa 0,0 l/m 0,0 km/h O-SO -14,0 C -12,2 C 0,0 km/h
14.02.2013 09:00 -5,4 C 86 % 1020,6 hPa 0,0 l/m 0,0 km/h O-SO -7,4 C -5,4 C 0,0 km/h
14.02.2013 10:00 3,4 C 71 % 1020,1 hPa 0,0 l/m 0,0 km/h N-NO -1,3 C 3,4 C 0,0 km/h
14.02.2013 11:00 4,6 C 56 % 1019,6 hPa 0,0 l/m 0,0 km/h N-NO -3,4 C 4,6 C 0,0 km/h
14.02.2013 12:00 5,6 C 50 % 1019,1 hPa 0,5 l/m 0,0 km/h N -4,0 C 5,6 C 0,0 km/h
14.02.2013 13:00 3,2 C 52 % 1018,3 hPa 0,5 l/m 0,0 km/h NO -5,7 C 3,2 C 0,0 km/h
14.02.2013 14:00 1,9 C 59 % 1017,8 hPa 0,0 l/m 0,0 km/h O-SO -5,2 C 1,9 C 0,0 km/h
14.02.2013 15:00 1,9 C 61 % 1017,2 hPa 0,5 l/m 0,0 km/h O-SO -4,8 C 1,9 C 0,0 km/h
14.02.2013 16:00 0,4 C 65 % 1016,5 hPa 0,0 l/m 0,0 km/h SO -5,4 C 0,4 C 0,0 km/h
14.02.2013 17:00 -0,4 C 70 % 1015,7 hPa 0,0 l/m 0,0 km/h O -5,2 C -0,4 C 0,0 km/h
14.02.2013 18:00 -1,4 C 76 % 1015,2 hPa 0,0 l/m 0,0 km/h S-SO -5,1 C -1,4 C 0,0 km/h
14.02.2013 19:00 -1,6 C 79 % 1014,8 hPa 0,0 l/m 0,0 km/h S -4,8 C -1,6 C 0,0 km/h
14.02.2013 20:00 -1,6 C 81 % 1014,5 hPa 0,0 l/m 0,0 km/h O-SO -4,4 C -1,6 C 0,0 km/h
14.02.2013 21:00 -0,9 C 82 % 1013,7 hPa 0,0 l/m 0,0 km/h S-SO -3,6 C -0,9 C 0,0 km/h
14.02.2013 22:00 -0,6 C 82 % 1013,7 hPa 0,0 l/m 0,0 km/h SO -3,3 C -0,6 C 0,0 km/h
14.02.2013 23:00 -0,9 C 83 % 1013,1 hPa 0,0 l/m 0,0 km/h NO -3,4 C -0,9 C 0,0 km/h
15.02.2013 00:00 -0,7 C 85 % 1012,7 hPa 0,0 l/m 0,0 km/h N-NO -2,9 C -0,7 C 0,0 km/h
15.02.2013 01:00 -0,6 C 86 % 1012,5 hPa 0,0 l/m 0,0 km/h O-SO -2,6 C -0,6 C 0,0 km/h
15.02.2013 02:00 -0,4 C 86 % 1012,8 hPa 0,0 l/m 0,0 km/h O-NO -2,4 C -0,4 C 0,0 km/h
15.02.2013 03:00 -0,2 C 86 % 1012,6 hPa 0,0 l/m 0,0 km/h S-SO -2,3 C -0,2 C 0,0 km/h
15.02.2013 04:00 0,1 C 86 % 1012,5 hPa 0,0 l/m 0,0 km/h S-SO -2,0 C 0,1 C 0,0 km/h
15.02.2013 05:00 0,1 C 85 % 1012,9 hPa 0,0 l/m 0,0 km/h S-SO -2,1 C 0,1 C 0,0 km/h
15.02.2013 06:00 0,1 C 85 % 1013,5 hPa 0,0 l/m 0,0 km/h S-SO -2,1 C 0,1 C 0,0 km/h
15.02.2013 07:00 0,1 C 85 % 1014,1 hPa 0,0 l/m 0,0 km/h S-SO -2,1 C 0,1 C 0,0 km/h
15.02.2013 08:00 0,2 C 85 % 1014,7 hPa 0,0 l/m 0,0 km/h S-SO -2,0 C 0,2 C 0,0 km/h
15.02.2013 09:00 1,0 C 85 % 1015,4 hPa 0,0 l/m 0,0 km/h S-SO -1,2 C 1,0 C 0,0 km/h
15.02.2013 10:00 1,9 C 85 % 1016,3 hPa 0,0 l/m 0,0 km/h S-SO -0,3 C 1,9 C 0,0 km/h
15.02.2013 11:00 3,1 C 85 % 1017,0 hPa 0,0 l/m 0,0 km/h O-SO 0,8 C 3,1 C 0,0 km/h
15.02.2013 12:00 2,9 C 86 % 1017,3 hPa 0,5 l/m 0,0 km/h O-SO 0,8 C 2,9 C 0,0 km/h
15.02.2013 13:00 3,0 C 86 % 1017,8 hPa 0,0 l/m 0,0 km/h S 0,9 C 3,0 C 0,0 km/h
15.02.2013 14:00 4,3 C 85 % 1017,9 hPa 0,0 l/m 0,0 km/h S 2,0 C 4,3 C 0,0 km/h
15.02.2013 15:00 4,1 C 83 % 1018,2 hPa 2,1 l/m 0,0 km/h SO 1,5 C 4,1 C 0,0 km/h
15.02.2013 16:00 3,2 C 84 % 1018,6 hPa 1,0 l/m 0,0 km/h S-SO 0,8 C 3,2 C 0,0 km/h
15.02.2013 17:00 1,9 C 86 % 1019,0 hPa 1,0 l/m 0,0 km/h S -0,2 C 1,9 C 0,0 km/h
15.02.2013 18:00 1,2 C 86 % 1019,7 hPa 0,0 l/m 1,3 km/h O-SO -0,9 C 1,2 C 0,7 km/h
15.02.2013 19:00 1,1 C 85 % 1020,2 hPa 0,5 l/m 0,0 km/h S-SO -1,1 C 1,1 C 0,0 km/h
15.02.2013 20:00 0,9 C 85 % 1020,5 hPa 0,5 l/m 0,0 km/h S-SO -1,3 C 0,9 C 0,0 km/h
15.02.2013 21:00 0,9 C 84 % 1020,8 hPa 0,0 l/m 0,0 km/h S-SO -1,5 C 0,9 C 0,0 km/h
15.02.2013 22:00 0,9 C 83 % 1021,1 hPa 0,0 l/m 0,0 km/h S-SO -1,7 C 0,9 C 0,0 km/h
15.02.2013 23:00 0,9 C 83 % 1021,2 hPa 0,0 l/m 0,0 km/h S-SO -1,7 C 0,9 C 0,0 km/h
16.02.2013 00:00 0,8 C 82 % 1021,1 hPa 0,5 l/m 0,0 km/h S-SO -1,9 C 0,8 C 0,0 km/h
16.02.2013 01:00 0,4 C 82 % 1021,2 hPa 0,0 l/m 0,0 km/h S-SO -2,3 C 0,4 C 0,0 km/h
16.02.2013 02:00 0,4 C 82 % 1021,2 hPa 0,0 l/m 0,0 km/h O-SO -2,3 C 0,4 C 0,0 km/h
16.02.2013 03:00 0,4 C 82 % 1021,2 hPa 0,0 l/m 0,0 km/h O-SO -2,3 C 0,4 C 0,0 km/h
16.02.2013 04:00 0,5 C 81 % 1020,8 hPa 0,0 l/m 0,0 km/h S-SO -2,4 C 0,5 C 0,0 km/h
16.02.2013 05:00 0,7 C 80 % 1020,9 hPa 0,0 l/m 0,0 km/h S-SO -2,3 C 0,7 C 0,0 km/h
16.02.2013 06:00 0,8 C 79 % 1021,2 hPa 0,0 l/m 0,0 km/h S-SO -2,4 C 0,8 C 0,0 km/h
16.02.2013 07:00 0,5 C 79 % 1021,2 hPa 0,5 l/m 0,0 km/h S-SO -2,7 C 0,5 C 0,0 km/h
16.02.2013 08:00 1,3 C 78 % 1021,7 hPa 0,0 l/m 0,0 km/h S-SO -2,1 C 1,3 C 0,0 km/h
16.02.2013 09:00 2,5 C 77 % 1022,1 hPa 0,0 l/m 0,0 km/h S-SO -1,1 C 2,5 C 0,0 km/h
16.02.2013 10:00 6,4 C 77 % 1022,2 hPa 0,5 l/m 0,0 km/h O-NO 2,7 C 6,4 C 0,0 km/h
16.02.2013 11:00 8,1 C 86 % 1022,3 hPa 0,5 l/m 0,0 km/h N-NO 5,9 C 8,1 C 0,0 km/h
16.02.2013 12:00 10,6 C 69 % 1021,8 hPa 0,5 l/m 0,0 km/h N 5,2 C 10,6 C 0,0 km/h
16.02.2013 13:00 9,8 C 63 % 1021,4 hPa 0,0 l/m 0,0 km/h N 3,1 C 9,8 C 0,0 km/h
16.02.2013 14:00 9,3 C 65 % 1021,1 hPa 0,0 l/m 0,0 km/h N 3,1 C 9,3 C 0,0 km/h
16.02.2013 15:00 7,6 C 69 % 1021,1 hPa 0,0 l/m 0,0 km/h N 2,3 C 7,6 C 0,0 km/h
16.02.2013 16:00 6,1 C 73 % 1021,0 hPa 0,0 l/m 0,0 km/h O-NO 1,6 C 6,1 C 0,0 km/h
16.02.2013 17:00 2,7 C 81 % 1020,9 hPa 0,0 l/m 0,0 km/h S-SO -0,2 C 2,7 C 0,0 km/h
16.02.2013 18:00 1,3 C 85 % 1021,0 hPa 0,0 l/m 0,0 km/h S-SO -0,9 C 1,3 C 0,0 km/h
16.02.2013 19:00 -0,1 C 86 % 1021,2 hPa 0,0 l/m 0,0 km/h S-SO -2,2 C -0,1 C 0,0 km/h
16.02.2013 20:00 -0,9 C 86 % 1021,1 hPa 0,0 l/m 0,0 km/h S-SO -2,9 C -0,9 C 0,0 km/h
16.02.2013 21:00 -1,6 C 86 % 1021,0 hPa 0,0 l/m 0,0 km/h SO -3,6 C -1,6 C 0,0 km/h
16.02.2013 22:00 -2,1 C 86 % 1021,0 hPa 0,0 l/m 0,0 km/h O -4,1 C -2,1 C 0,0 km/h
16.02.2013 23:00 -1,6 C 85 % 1020,8 hPa 0,0 l/m 0,0 km/h O-SO -3,8 C -1,6 C 0,0 km/h
17.02.2013 00:00 -2,7 C 85 % 1020,7 hPa 0,0 l/m 0,0 km/h O-SO -4,9 C -2,7 C 0,0 km/h
17.02.2013 01:00 -3,1 C 85 % 1020,8 hPa 0,0 l/m 0,0 km/h O-SO -5,3 C -3,1 C 0,0 km/h
17.02.2013 02:00 -3,3 C 85 % 1020,5 hPa 0,0 l/m 0,0 km/h O-SO -5,5 C -3,3 C 0,0 km/h
17.02.2013 03:00 -3,7 C 86 % 1020,2 hPa 0,0 l/m 0,0 km/h O -5,7 C -3,7 C 0,0 km/h
17.02.2013 04:00 -3,9 C 85 % 1020,1 hPa 0,0 l/m 0,0 km/h O-NO -6,0 C -3,9 C 0,0 km/h
17.02.2013 05:00 -3,6 C 85 % 1020,3 hPa 0,0 l/m 0,0 km/h O-NO -5,7 C -3,6 C 0,0 km/h
17.02.2013 06:00 -2,7 C 83 % 1020,1 hPa 0,0 l/m 0,0 km/h S -5,2 C -2,7 C 0,0 km/h
17.02.2013 07:00 -2,6 C 83 % 1020,1 hPa 0,0 l/m 0,0 km/h S -5,1 C -2,6 C 0,0 km/h
17.02.2013 08:00 -2,2 C 82 % 1020,4 hPa 0,0 l/m 0,0 km/h S-SO -4,8 C -2,2 C 0,0 km/h
17.02.2013 09:00 -0,6 C 80 % 1020,2 hPa 0,0 l/m 0,0 km/h W-NW -3,6 C -0,6 C 0,0 km/h
17.02.2013 10:00 0,9 C 77 % 1020,4 hPa 0,0 l/m 0,0 km/h NW -2,7 C 0,9 C 0,0 km/h
17.02.2013 11:00 1,9 C 86 % 1020,2 hPa 0,0 l/m 0,0 km/h N-NW -0,2 C 1,9 C 0,0 km/h
17.02.2013 12:00 3,3 C 85 % 1019,7 hPa 0,0 l/m 0,0 km/h N-NO 1,0 C 3,3 C 0,0 km/h
17.02.2013 13:00 3,7 C 82 % 1019,2 hPa 0,0 l/m 0,0 km/h N-NW 0,9 C 3,7 C 0,0 km/h
17.02.2013 14:00 3,1 C 84 % 1018,6 hPa 0,0 l/m 0,0 km/h W 0,7 C 3,1 C 0,0 km/h
17.02.2013 15:00 2,6 C 85 % 1018,4 hPa 0,0 l/m 0,0 km/h SO 0,3 C 2,6 C 0,0 km/h
17.02.2013 16:00 2,9 C 85 % 1017,7 hPa 0,0 l/m 0,0 km/h W 0,6 C 2,9 C 0,0 km/h
17.02.2013 17:00 1,5 C 85 % 1017,8 hPa 0,0 l/m 0,0 km/h S-SW -0,7 C 1,5 C 0,0 km/h
17.02.2013 18:00 0,8 C 86 % 1017,9 hPa 0,0 l/m 0,0 km/h S -1,3 C 0,8 C 0,0 km/h
17.02.2013 19:00 0,6 C 86 % 1018,0 hPa 0,0 l/m 0,0 km/h S-SO -1,5 C 0,6 C 0,0 km/h
17.02.2013 20:00 0,6 C 85 % 1017,7 hPa 0,0 l/m 0,0 km/h S-SW -1,6 C 0,6 C 0,0 km/h
17.02.2013 21:00 0,5 C 84 % 1017,7 hPa 0,0 l/m 0,0 km/h O-SO -1,9 C 0,5 C 0,0 km/h
17.02.2013 22:00 0,8 C 84 % 1017,5 hPa 0,0 l/m 0,0 km/h S-SW -1,6 C 0,8 C 0,0 km/h
17.02.2013 23:00 0,7 C 83 % 1017,4 hPa 0,0 l/m 0,0 km/h O-NO -1,8 C 0,7 C 0,0 km/h
Min-Datum _ 14.02.13 14.02.13 11.02.13 - 11.02.13 - 14.02.13 14.02.13 11.02.13
_ Min-Zeit 05:19 12:19 13:19 - 00:19 - 05:19 05:19 00:19
Minimum _ -13,9 C 50 % 997,1 hPa - 0,0 km/h - -15,9 C -13,9 C 0,0 km/h
Max-Datum _ 16.02.13 13.02.13 13.02.13 15.02.13 13.02.13 - 16.02.13 16.02.13 13.02.13
_ Max-Zeit 12:19 06:19 22:19 15:19 23:19 - 11:19 12:19 23:19
Maximum _ 10,6 C 87 % 1023,2 hPa 2,1 l/m 7,1 km/h
O-SO
- 5,9 C 10,6 C 4,0 km/h
O-SO
Durchschnitt _ -0,7 C 81 % 1014,3 hPa #12,4 l/m 0,1 km/h O-SO -3,6 C -0,7 C 0,0 km/h
www.sexauwetter.de